Terminal Aerodrome Forecast
Issued by NWS Grand Junction, CO

Home | Current Version | Previous Version | Text Only | Print | Product List | Glossary On
Versions: 1 2 3 4 5 6 7 8 9 10 11 12 13 14 15 16 17 18 19 20 21 22 23 24 25 26 27 28 29 30
939
FTUS45 KGJT 271123
TAFGJT
TAF
KGJT 271123Z 2712/2812 13006KT P6SM BKN100
     FM271800 17009KT P6SM BKN090
     FM272100 20011KT P6SM BKN070
     FM280200 18008KT P6SM VCSH BKN060
     FM280600 11005KT 6SM -SHRA OVC035
     FM281000 00000KT P6SM BKN050=

USA.gov is the U.S. government's official web portal to all federal, state and local government web resources and services.